sensor_id;sensor_type;location;lat;lon;timestamp;P1;durP1;ratioP1;P2;durP2;ratioP2
69789;SDS011;57064;52.046;4.800;2022-09-27T00:00:35;6.15;;;0.60;;
69789;SDS011;57064;52.046;4.800;2022-09-27T00:03:01;6.45;;;0.70;;
69789;SDS011;57064;52.046;4.800;2022-09-27T00:05:28;2.20;;;0.43;;
69789;SDS011;57064;52.046;4.800;2022-09-27T00:07:54;6.82;;;0.95;;
69789;SDS011;57064;52.046;4.800;2022-09-27T00:10:21;4.50;;;0.60;;
69789;SDS011;57064;52.046;4.800;2022-09-27T00:12:47;1.48;;;0.30;;
69789;SDS011;57064;52.046;4.800;2022-09-27T00:15:14;5.05;;;0.95;;
69789;SDS011;57064;52.046;4.800;2022-09-27T00:17:40;4.97;;;0.65;;
69789;SDS011;57064;52.046;4.800;2022-09-27T00:20:07;4.15;;;0.60;;
69789;SDS011;57064;52.046;4.800;2022-09-27T00:22:33;5.88;;;1.00;;
69789;SDS011;57064;52.046;4.800;2022-09-27T00:25:00;3.78;;;1.13;;
69789;SDS011;57064;52.046;4.800;2022-09-27T00:27:29;6.55;;;0.60;;
69789;SDS011;57064;52.046;4.800;2022-09-27T00:29:56;5.95;;;0.60;;
69789;SDS011;57064;52.046;4.800;2022-09-27T00:32:22;3.38;;;0.63;;
69789;SDS011;57064;52.046;4.800;2022-09-27T00:34:48;7.40;;;0.70;;
69789;SDS011;57064;52.046;4.800;2022-09-27T00:37:14;7.40;;;0.95;;
69789;SDS011;57064;52.046;4.800;2022-09-27T00:39:40;6.88;;;1.63;;
69789;SDS011;57064;52.046;4.800;2022-09-27T00:42:09;5.82;;;0.70;;
69789;SDS011;57064;52.046;4.800;2022-09-27T00:47:09;3.53;;;0.70;;
69789;SDS011;57064;52.046;4.800;2022-09-27T00:55:19;6.97;;;0.90;;
69789;SDS011;57064;52.046;4.800;2022-09-27T00:57:50;5.68;;;0.65;;
69789;SDS011;57064;52.046;4.800;2022-09-27T01:00:16;5.07;;;1.17;;
69789;SDS011;57064;52.046;4.800;2022-09-27T01:02:44;12.57;;;1.30;;
69789;SDS011;57064;52.046;4.800;2022-09-27T01:05:15;7.22;;;0.95;;
69789;SDS011;57064;52.046;4.800;2022-09-27T01:07:44;7.65;;;0.93;;
69789;SDS011;57064;52.046;4.800;2022-09-27T01:10:10;10.68;;;1.50;;
69789;SDS011;57064;52.046;4.800;2022-09-27T01:13:04;8.90;;;1.67;;
69789;SDS011;57064;52.046;4.800;2022-09-27T01:27:12;5.60;;;1.10;;
69789;SDS011;57064;52.046;4.800;2022-09-27T01:32:49;7.78;;;0.90;;
69789;SDS011;57064;52.046;4.800;2022-09-27T01:35:22;6.45;;;1.00;;
69789;SDS011;57064;52.046;4.800;2022-09-27T01:40:47;7.03;;;1.27;;
69789;SDS011;57064;52.046;4.800;2022-09-27T01:46:35;3.85;;;1.00;;
69789;SDS011;57064;52.046;4.800;2022-09-27T01:49:08;7.07;;;0.95;;
69789;SDS011;57064;52.046;4.800;2022-09-27T01:51:48;5.88;;;1.10;;
69789;SDS011;57064;52.046;4.800;2022-09-27T01:54:21;11.27;;;1.13;;
69789;SDS011;57064;52.046;4.800;2022-09-27T01:56:50;5.03;;;0.88;;
69789;SDS011;57064;52.046;4.800;2022-09-27T01:59:27;15.60;;;1.48;;
69789;SDS011;57064;52.046;4.800;2022-09-27T02:01:56;8.95;;;1.33;;
69789;SDS011;57064;52.046;4.800;2022-09-27T02:04:29;4.35;;;0.80;;
69789;SDS011;57064;52.046;4.800;2022-09-27T02:07:02;7.30;;;1.25;;
69789;SDS011;57064;52.046;4.800;2022-09-27T02:12:04;4.38;;;1.10;;
69789;SDS011;57064;52.046;4.800;2022-09-27T02:14:36;7.87;;;0.83;;
69789;SDS011;57064;52.046;4.800;2022-09-27T02:30:43;6.80;;;1.55;;
69789;SDS011;57064;52.046;4.800;2022-09-27T02:33:09;5.53;;;1.40;;
69789;SDS011;57064;52.046;4.800;2022-09-27T02:35:35;5.38;;;1.98;;
69789;SDS011;57064;52.046;4.800;2022-09-27T02:38:02;10.98;;;1.42;;
69789;SDS011;57064;52.046;4.800;2022-09-27T02:40:31;9.00;;;1.15;;
69789;SDS011;57064;52.046;4.800;2022-09-27T02:42:59;8.27;;;1.40;;
69789;SDS011;57064;52.046;4.800;2022-09-27T02:45:30;7.35;;;1.23;;
69789;SDS011;57064;52.046;4.800;2022-09-27T02:48:14;5.43;;;0.95;;
69789;SDS011;57064;52.046;4.800;2022-09-27T03:03:58;5.97;;;0.35;;
69789;SDS011;57064;52.046;4.800;2022-09-27T03:06:45;4.38;;;0.55;;
69789;SDS011;57064;52.046;4.800;2022-09-27T03:09:13;4.53;;;0.40;;
69789;SDS011;57064;52.046;4.800;2022-09-27T03:11:43;2.87;;;0.40;;
69789;SDS011;57064;52.046;4.800;2022-09-27T03:14:09;1.48;;;0.32;;
69789;SDS011;57064;52.046;4.800;2022-09-27T03:16:35;1.55;;;0.50;;
69789;SDS011;57064;52.046;4.800;2022-09-27T03:19:01;6.03;;;0.40;;
69789;SDS011;57064;52.046;4.800;2022-09-27T03:21:27;2.40;;;0.30;;
69789;SDS011;57064;52.046;4.800;2022-09-27T03:23:53;2.38;;;0.32;;
69789;SDS011;57064;52.046;4.800;2022-09-27T03:26:19;1.58;;;0.70;;
69789;SDS011;57064;52.046;4.800;2022-09-27T03:28:45;1.13;;;0.75;;
69789;SDS011;57064;52.046;4.800;2022-09-27T03:31:11;1.58;;;0.30;;
69789;SDS011;57064;52.046;4.800;2022-09-27T03:33:38;4.95;;;0.40;;
69789;SDS011;57064;52.046;4.800;2022-09-27T03:36:05;1.90;;;0.30;;
69789;SDS011;57064;52.046;4.800;2022-09-27T03:38:31;1.77;;;0.50;;
69789;SDS011;57064;52.046;4.800;2022-09-27T03:40:57;1.83;;;0.30;;
69789;SDS011;57064;52.046;4.800;2022-09-27T03:43:24;3.72;;;0.52;;
69789;SDS011;57064;52.046;4.800;2022-09-27T03:45:50;5.68;;;1.17;;
69789;SDS011;57064;52.046;4.800;2022-09-27T03:48:16;2.22;;;0.57;;
69789;SDS011;57064;52.046;4.800;2022-09-27T03:50:42;5.78;;;0.70;;
69789;SDS011;57064;52.046;4.800;2022-09-27T03:53:08;3.13;;;0.40;;
69789;SDS011;57064;52.046;4.800;2022-09-27T03:55:34;2.70;;;0.52;;
69789;SDS011;57064;52.046;4.800;2022-09-27T03:58:00;2.53;;;0.55;;
69789;SDS011;57064;52.046;4.800;2022-09-27T04:00:26;4.75;;;0.75;;
69789;SDS011;57064;52.046;4.800;2022-09-27T04:02:52;6.50;;;0.90;;
69789;SDS011;57064;52.046;4.800;2022-09-27T04:05:18;6.00;;;1.13;;
69789;SDS011;57064;52.046;4.800;2022-09-27T04:07:45;12.02;;;2.58;;
69789;SDS011;57064;52.046;4.800;2022-09-27T04:10:14;4.30;;;0.70;;
69789;SDS011;57064;52.046;4.800;2022-09-27T04:12:41;3.85;;;0.80;;
69789;SDS011;57064;52.046;4.800;2022-09-27T04:15:08;3.17;;;0.60;;
69789;SDS011;57064;52.046;4.800;2022-09-27T04:17:34;4.68;;;0.95;;
69789;SDS011;57064;52.046;4.800;2022-09-27T04:20:00;8.57;;;0.95;;
69789;SDS011;57064;52.046;4.800;2022-09-27T04:22:27;5.18;;;0.73;;
69789;SDS011;57064;52.046;4.800;2022-09-27T04:24:53;3.35;;;0.90;;
69789;SDS011;57064;52.046;4.800;2022-09-27T04:27:20;6.57;;;0.77;;
69789;SDS011;57064;52.046;4.800;2022-09-27T04:29:46;2.13;;;0.82;;
69789;SDS011;57064;52.046;4.800;2022-09-27T04:32:12;5.32;;;0.70;;
69789;SDS011;57064;52.046;4.800;2022-09-27T04:34:39;5.80;;;0.73;;
69789;SDS011;57064;52.046;4.800;2022-09-27T04:37:24;2.13;;;0.43;;
69789;SDS011;57064;52.046;4.800;2022-09-27T04:39:51;6.93;;;0.95;;
69789;SDS011;57064;52.046;4.800;2022-09-27T04:42:17;4.75;;;0.43;;
69789;SDS011;57064;52.046;4.800;2022-09-27T04:44:43;1.85;;;0.40;;
69789;SDS011;57064;52.046;4.800;2022-09-27T04:47:09;2.80;;;0.38;;
69789;SDS011;57064;52.046;4.800;2022-09-27T04:49:35;5.78;;;0.70;;
69789;SDS011;57064;52.046;4.800;2022-09-27T04:52:02;4.78;;;3.13;;
69789;SDS011;57064;52.046;4.800;2022-09-27T04:54:30;9.10;;;0.70;;
69789;SDS011;57064;52.046;4.800;2022-09-27T04:56:56;2.63;;;0.77;;
69789;SDS011;57064;52.046;4.800;2022-09-27T04:59:22;7.38;;;0.73;;
69789;SDS011;57064;52.046;4.800;2022-09-27T05:01:48;5.63;;;1.85;;
69789;SDS011;57064;52.046;4.800;2022-09-27T05:04:14;4.80;;;0.95;;
69789;SDS011;57064;52.046;4.800;2022-09-27T05:06:40;5.57;;;0.80;;
69789;SDS011;57064;52.046;4.800;2022-09-27T05:09:06;4.68;;;0.75;;
69789;SDS011;57064;52.046;4.800;2022-09-27T05:11:32;8.00;;;1.80;;
69789;SDS011;57064;52.046;4.800;2022-09-27T05:14:02;3.38;;;0.52;;
69789;SDS011;57064;52.046;4.800;2022-09-27T05:16:28;6.07;;;0.75;;
69789;SDS011;57064;52.046;4.800;2022-09-27T05:18:54;5.60;;;0.60;;
69789;SDS011;57064;52.046;4.800;2022-09-27T05:21:21;3.58;;;0.73;;
69789;SDS011;57064;52.046;4.800;2022-09-27T05:23:47;2.35;;;0.52;;
69789;SDS011;57064;52.046;4.800;2022-09-27T05:26:13;6.07;;;0.90;;
69789;SDS011;57064;52.046;4.800;2022-09-27T05:28:40;5.78;;;1.35;;
69789;SDS011;57064;52.046;4.800;2022-09-27T05:31:07;3.53;;;0.55;;
69789;SDS011;57064;52.046;4.800;2022-09-27T05:33:33;8.13;;;1.00;;
69789;SDS011;57064;52.046;4.800;2022-09-27T05:35:59;3.10;;;0.68;;
69789;SDS011;57064;52.046;4.800;2022-09-27T05:38:26;8.27;;;1.33;;
69789;SDS011;57064;52.046;4.800;2022-09-27T05:40:52;5.90;;;1.20;;
69789;SDS011;57064;52.046;4.800;2022-09-27T05:43:19;8.20;;;1.10;;
69789;SDS011;57064;52.046;4.800;2022-09-27T05:45:45;9.30;;;1.00;;
69789;SDS011;57064;52.046;4.800;2022-09-27T05:48:11;7.25;;;1.20;;
69789;SDS011;57064;52.046;4.800;2022-09-27T05:50:38;5.55;;;1.40;;
69789;SDS011;57064;52.046;4.800;2022-09-27T05:53:05;4.90;;;0.68;;
69789;SDS011;57064;52.046;4.800;2022-09-27T05:55:31;9.30;;;1.58;;
69789;SDS011;57064;52.046;4.800;2022-09-27T05:57:58;8.13;;;1.00;;
69789;SDS011;57064;52.046;4.800;2022-09-27T06:00:26;7.90;;;1.05;;
69789;SDS011;57064;52.046;4.800;2022-09-27T06:02:57;3.88;;;1.00;;
69789;SDS011;57064;52.046;4.800;2022-09-27T06:05:25;6.85;;;1.10;;
69789;SDS011;57064;52.046;4.800;2022-09-27T06:07:57;8.65;;;0.85;;
69789;SDS011;57064;52.046;4.800;2022-09-27T06:10:24;4.28;;;1.00;;
69789;SDS011;57064;52.046;4.800;2022-09-27T06:12:51;9.82;;;1.00;;
69789;SDS011;57064;52.046;4.800;2022-09-27T06:15:17;5.20;;;0.77;;
69789;SDS011;57064;52.046;4.800;2022-09-27T06:17:43;8.73;;;0.88;;
69789;SDS011;57064;52.046;4.800;2022-09-27T06:20:09;6.25;;;1.35;;
69789;SDS011;57064;52.046;4.800;2022-09-27T06:22:35;4.70;;;0.60;;
69789;SDS011;57064;52.046;4.800;2022-09-27T06:25:02;7.20;;;0.85;;
69789;SDS011;57064;52.046;4.800;2022-09-27T06:27:31;5.68;;;0.63;;
69789;SDS011;57064;52.046;4.800;2022-09-27T06:29:58;6.40;;;0.60;;
69789;SDS011;57064;52.046;4.800;2022-09-27T06:32:25;3.28;;;0.65;;
69789;SDS011;57064;52.046;4.800;2022-09-27T06:34:51;4.53;;;1.13;;
69789;SDS011;57064;52.046;4.800;2022-09-27T06:37:17;7.43;;;0.77;;
69789;SDS011;57064;52.046;4.800;2022-09-27T06:39:43;2.47;;;0.90;;
69789;SDS011;57064;52.046;4.800;2022-09-27T06:42:09;3.80;;;0.75;;
69789;SDS011;57064;52.046;4.800;2022-09-27T06:44:35;6.00;;;0.60;;
69789;SDS011;57064;52.046;4.800;2022-09-27T06:47:01;8.73;;;1.00;;
69789;SDS011;57064;52.046;4.800;2022-09-27T06:49:27;2.63;;;1.02;;
69789;SDS011;57064;52.046;4.800;2022-09-27T06:51:55;5.30;;;0.80;;
69789;SDS011;57064;52.046;4.800;2022-09-27T06:54:21;3.33;;;0.88;;
69789;SDS011;57064;52.046;4.800;2022-09-27T06:56:47;3.83;;;0.75;;
69789;SDS011;57064;52.046;4.800;2022-09-27T06:59:13;2.50;;;0.75;;
69789;SDS011;57064;52.046;4.800;2022-09-27T07:01:58;1.08;;;0.50;;
69789;SDS011;57064;52.046;4.800;2022-09-27T07:04:25;4.90;;;0.77;;
69789;SDS011;57064;52.046;4.800;2022-09-27T07:06:51;5.20;;;0.95;;
69789;SDS011;57064;52.046;4.800;2022-09-27T07:09:18;5.00;;;0.70;;
69789;SDS011;57064;52.046;4.800;2022-09-27T07:11:44;5.30;;;1.73;;
69789;SDS011;57064;52.046;4.800;2022-09-27T07:14:10;5.88;;;1.05;;
69789;SDS011;57064;52.046;4.800;2022-09-27T07:16:36;8.90;;;1.52;;
69789;SDS011;57064;52.046;4.800;2022-09-27T07:19:02;6.07;;;0.80;;
69789;SDS011;57064;52.046;4.800;2022-09-27T07:21:31;2.88;;;0.63;;
69789;SDS011;57064;52.046;4.800;2022-09-27T07:23:57;6.47;;;1.13;;
69789;SDS011;57064;52.046;4.800;2022-09-27T07:26:24;8.45;;;1.15;;
69789;SDS011;57064;52.046;4.800;2022-09-27T07:28:50;2.50;;;0.77;;
69789;SDS011;57064;52.046;4.800;2022-09-27T07:31:17;4.35;;;0.90;;
69789;SDS011;57064;52.046;4.800;2022-09-27T07:33:43;3.65;;;0.43;;
69789;SDS011;57064;52.046;4.800;2022-09-27T07:36:10;7.78;;;0.90;;
69789;SDS011;57064;52.046;4.800;2022-09-27T07:38:37;5.85;;;0.65;;
69789;SDS011;57064;52.046;4.800;2022-09-27T07:41:07;9.88;;;0.93;;
69789;SDS011;57064;52.046;4.800;2022-09-27T07:43:35;4.15;;;0.55;;
69789;SDS011;57064;52.046;4.800;2022-09-27T07:46:01;3.63;;;0.60;;
69789;SDS011;57064;52.046;4.800;2022-09-27T07:48:27;5.25;;;0.60;;
69789;SDS011;57064;52.046;4.800;2022-09-27T07:50:53;5.00;;;0.43;;
69789;SDS011;57064;52.046;4.800;2022-09-27T07:53:19;3.95;;;0.68;;
69789;SDS011;57064;52.046;4.800;2022-09-27T07:55:48;2.67;;;0.50;;
69789;SDS011;57064;52.046;4.800;2022-09-27T07:58:17;1.33;;;0.30;;
69789;SDS011;57064;52.046;4.800;2022-09-27T08:00:44;3.67;;;0.73;;
69789;SDS011;57064;52.046;4.800;2022-09-27T08:03:11;3.85;;;0.40;;
69789;SDS011;57064;52.046;4.800;2022-09-27T08:05:39;2.47;;;0.30;;
69789;SDS011;57064;52.046;4.800;2022-09-27T08:08:06;2.20;;;0.50;;
69789;SDS011;57064;52.046;4.800;2022-09-27T08:10:32;1.15;;;0.30;;
69789;SDS011;57064;52.046;4.800;2022-09-27T08:13:02;5.90;;;0.70;;
69789;SDS011;57064;52.046;4.800;2022-09-27T08:15:32;4.82;;;1.55;;
69789;SDS011;57064;52.046;4.800;2022-09-27T08:18:03;1.88;;;0.50;;
69789;SDS011;57064;52.046;4.800;2022-09-27T08:20:30;4.57;;;0.90;;
69789;SDS011;57064;52.046;4.800;2022-09-27T08:22:56;3.25;;;0.50;;
69789;SDS011;57064;52.046;4.800;2022-09-27T08:25:22;4.18;;;0.85;;
69789;SDS011;57064;52.046;4.800;2022-09-27T08:27:54;6.82;;;0.93;;
69789;SDS011;57064;52.046;4.800;2022-09-27T08:30:21;4.45;;;1.48;;
69789;SDS011;57064;52.046;4.800;2022-09-27T08:32:48;3.25;;;0.40;;
69789;SDS011;57064;52.046;4.800;2022-09-27T08:35:18;10.77;;;1.85;;
69789;SDS011;57064;52.046;4.800;2022-09-27T08:37:52;3.88;;;0.90;;
69789;SDS011;57064;52.046;4.800;2022-09-27T08:40:19;4.15;;;0.63;;
69789;SDS011;57064;52.046;4.800;2022-09-27T08:45:51;1.80;;;0.50;;
69789;SDS011;57064;52.046;4.800;2022-09-27T08:48:44;1.33;;;0.45;;
69789;SDS011;57064;52.046;4.800;2022-09-27T08:51:14;5.65;;;0.50;;
69789;SDS011;57064;52.046;4.800;2022-09-27T08:53:48;3.95;;;0.45;;
69789;SDS011;57064;52.046;4.800;2022-09-27T08:56:24;4.10;;;0.30;;
69789;SDS011;57064;52.046;4.800;2022-09-27T08:59:13;4.65;;;0.70;;
69789;SDS011;57064;52.046;4.800;2022-09-27T09:01:37;3.33;;;0.28;;
69789;SDS011;57064;52.046;4.800;2022-09-27T09:04:03;3.80;;;1.15;;
69789;SDS011;57064;52.046;4.800;2022-09-27T09:21:09;4.00;;;0.63;;
69789;SDS011;57064;52.046;4.800;2022-09-27T09:35:04;2.95;;;0.40;;
69789;SDS011;57064;52.046;4.800;2022-09-27T09:37:36;7.75;;;0.98;;
69789;SDS011;57064;52.046;4.800;2022-09-27T09:40:24;3.13;;;0.60;;
69789;SDS011;57064;52.046;4.800;2022-09-27T09:45:35;3.80;;;0.98;;
69789;SDS011;57064;52.046;4.800;2022-09-27T09:50:40;2.90;;;0.65;;
69789;SDS011;57064;52.046;4.800;2022-09-27T09:53:14;5.93;;;1.00;;
69789;SDS011;57064;52.046;4.800;2022-09-27T09:55:54;3.58;;;0.70;;
69789;SDS011;57064;52.046;4.800;2022-09-27T09:58:31;1.38;;;0.77;;
69789;SDS011;57064;52.046;4.800;2022-09-27T10:01:20;6.28;;;1.08;;
69789;SDS011;57064;52.046;4.800;2022-09-27T10:03:52;4.70;;;1.00;;
69789;SDS011;57064;52.046;4.800;2022-09-27T10:06:20;2.42;;;0.73;;
69789;SDS011;57064;52.046;4.800;2022-09-27T10:08:46;6.28;;;0.88;;
69789;SDS011;57064;52.046;4.800;2022-09-27T10:11:24;4.80;;;0.98;;
69789;SDS011;57064;52.046;4.800;2022-09-27T10:13:53;4.60;;;0.90;;
69789;SDS011;57064;52.046;4.800;2022-09-27T10:16:20;3.08;;;0.80;;
69789;SDS011;57064;52.046;4.800;2022-09-27T10:18:48;2.88;;;0.57;;
69789;SDS011;57064;52.046;4.800;2022-09-27T10:21:21;3.95;;;0.90;;
69789;SDS011;57064;52.046;4.800;2022-09-27T10:26:34;4.50;;;1.05;;
69789;SDS011;57064;52.046;4.800;2022-09-27T10:31:48;4.72;;;0.77;;
69789;SDS011;57064;52.046;4.800;2022-09-27T10:34:16;4.03;;;0.60;;
69789;SDS011;57064;52.046;4.800;2022-09-27T10:37:04;5.32;;;1.02;;
69789;SDS011;57064;52.046;4.800;2022-09-27T10:39:41;2.85;;;0.90;;
69789;SDS011;57064;52.046;4.800;2022-09-27T10:45:36;4.22;;;0.90;;
69789;SDS011;57064;52.046;4.800;2022-09-27T10:47:57;0.73;;;0.45;;
69789;SDS011;57064;52.046;4.800;2022-09-27T10:50:28;2.30;;;0.95;;
69789;SDS011;57064;52.046;4.800;2022-09-27T10:52:59;5.57;;;0.65;;
69789;SDS011;57064;52.046;4.800;2022-09-27T10:55:27;3.50;;;1.60;;
69789;SDS011;57064;52.046;4.800;2022-09-27T10:57:57;3.47;;;0.95;;
69789;SDS011;57064;52.046;4.800;2022-09-27T11:00:25;3.25;;;0.95;;
69789;SDS011;57064;52.046;4.800;2022-09-27T11:03:00;6.72;;;0.88;;
69789;SDS011;57064;52.046;4.800;2022-09-27T11:05:35;6.18;;;1.55;;
69789;SDS011;57064;52.046;4.800;2022-09-27T11:11:14;4.05;;;1.20;;
69789;SDS011;57064;52.046;4.800;2022-09-27T11:13:56;4.53;;;0.98;;
69789;SDS011;57064;52.046;4.800;2022-09-27T11:29:34;5.00;;;0.77;;
69789;SDS011;57064;52.046;4.800;2022-09-27T11:32:24;5.38;;;1.10;;
69789;SDS011;57064;52.046;4.800;2022-09-27T11:40:34;1.95;;;0.95;;
69789;SDS011;57064;52.046;4.800;2022-09-27T11:43:24;4.60;;;0.85;;
69789;SDS011;57064;52.046;4.800;2022-09-27T11:46:02;3.05;;;0.77;;
69789;SDS011;57064;52.046;4.800;2022-09-27T11:57:04;4.53;;;2.22;;
69789;SDS011;57064;52.046;4.800;2022-09-27T12:10:49;3.40;;;1.65;;
69789;SDS011;57064;52.046;4.800;2022-09-27T12:13:24;4.97;;;1.30;;
69789;SDS011;57064;52.046;4.800;2022-09-27T12:16:02;2.08;;;1.08;;
69789;SDS011;57064;52.046;4.800;2022-09-27T12:18:34;2.10;;;1.70;;
69789;SDS011;57064;52.046;4.800;2022-09-27T12:21:03;2.00;;;0.60;;
69789;SDS011;57064;52.046;4.800;2022-09-27T12:26:12;1.17;;;0.30;;
69789;SDS011;57064;52.046;4.800;2022-09-27T12:31:22;0.80;;;0.50;;
69789;SDS011;57064;52.046;4.800;2022-09-27T12:36:51;0.98;;;0.45;;
69789;SDS011;57064;52.046;4.800;2022-09-27T12:39:28;2.17;;;0.70;;
69789;SDS011;57064;52.046;4.800;2022-09-27T12:42:02;1.73;;;1.00;;
69789;SDS011;57064;52.046;4.800;2022-09-27T12:44:37;1.15;;;0.55;;
69789;SDS011;57064;52.046;4.800;2022-09-27T12:50:11;5.13;;;0.50;;
69789;SDS011;57064;52.046;4.800;2022-09-27T12:52:44;3.50;;;1.05;;
69789;SDS011;57064;52.046;4.800;2022-09-27T13:00:56;5.28;;;1.00;;
69789;SDS011;57064;52.046;4.800;2022-09-27T13:08:51;2.47;;;0.80;;
69789;SDS011;57064;52.046;4.800;2022-09-27T13:14:37;4.10;;;1.55;;
69789;SDS011;57064;52.046;4.800;2022-09-27T13:31:02;3.53;;;1.05;;
69789;SDS011;57064;52.046;4.800;2022-09-27T13:33:48;3.50;;;1.00;;
69789;SDS011;57064;52.046;4.800;2022-09-27T13:36:17;3.53;;;0.93;;
69789;SDS011;57064;52.046;4.800;2022-09-27T13:41:53;3.97;;;0.90;;
69789;SDS011;57064;52.046;4.800;2022-09-27T13:46:48;3.83;;;0.88;;
69789;SDS011;57064;52.046;4.800;2022-09-27T13:49:50;3.03;;;0.68;;
69789;SDS011;57064;52.046;4.800;2022-09-27T13:52:34;7.07;;;0.95;;
69789;SDS011;57064;52.046;4.800;2022-09-27T13:55:03;2.10;;;0.60;;
69789;SDS011;57064;52.046;4.800;2022-09-27T13:57:56;1.40;;;0.50;;
69789;SDS011;57064;52.046;4.800;2022-09-27T14:00:29;5.20;;;0.75;;
69789;SDS011;57064;52.046;4.800;2022-09-27T14:05:58;8.45;;;1.23;;
69789;SDS011;57064;52.046;4.800;2022-09-27T14:08:31;3.90;;;1.25;;
69789;SDS011;57064;52.046;4.800;2022-09-27T14:11:01;4.20;;;1.20;;
69789;SDS011;57064;52.046;4.800;2022-09-27T14:13:29;4.18;;;1.45;;
69789;SDS011;57064;52.046;4.800;2022-09-27T14:15:57;3.45;;;0.65;;
69789;SDS011;57064;52.046;4.800;2022-09-27T14:18:27;3.55;;;0.90;;
69789;SDS011;57064;52.046;4.800;2022-09-27T14:20:55;2.88;;;0.75;;
69789;SDS011;57064;52.046;4.800;2022-09-27T14:23:53;2.83;;;0.90;;
69789;SDS011;57064;52.046;4.800;2022-09-27T14:26:39;2.92;;;0.80;;
69789;SDS011;57064;52.046;4.800;2022-09-27T14:29:14;5.75;;;1.05;;
69789;SDS011;57064;52.046;4.800;2022-09-27T14:31:45;3.83;;;0.80;;
69789;SDS011;57064;52.046;4.800;2022-09-27T14:34:14;5.07;;;1.15;;
69789;SDS011;57064;52.046;4.800;2022-09-27T14:36:42;5.32;;;0.95;;
69789;SDS011;57064;52.046;4.800;2022-09-27T14:39:28;5.80;;;1.02;;
69789;SDS011;57064;52.046;4.800;2022-09-27T14:41:56;4.30;;;0.68;;
69789;SDS011;57064;52.046;4.800;2022-09-27T14:44:23;5.65;;;0.93;;
69789;SDS011;57064;52.046;4.800;2022-09-27T14:47:06;7.38;;;1.08;;
69789;SDS011;57064;52.046;4.800;2022-09-27T14:49:45;6.57;;;0.90;;
69789;SDS011;57064;52.046;4.800;2022-09-27T14:52:26;3.20;;;0.82;;
69789;SDS011;57064;52.046;4.800;2022-09-27T14:55:00;5.60;;;0.90;;
69789;SDS011;57064;52.046;4.800;2022-09-27T14:57:30;4.13;;;0.70;;
69789;SDS011;57064;52.046;4.800;2022-09-27T15:00:20;2.85;;;0.90;;
69789;SDS011;57064;52.046;4.800;2022-09-27T15:02:50;5.67;;;0.60;;
69789;SDS011;57064;52.046;4.800;2022-09-27T15:05:20;4.72;;;0.77;;
69789;SDS011;57064;52.046;4.800;2022-09-27T15:07:49;4.75;;;0.88;;
69789;SDS011;57064;52.046;4.800;2022-09-27T15:10:18;3.00;;;0.70;;
69789;SDS011;57064;52.046;4.800;2022-09-27T15:12:47;4.63;;;1.25;;
69789;SDS011;57064;52.046;4.800;2022-09-27T15:15:20;6.28;;;1.67;;
69789;SDS011;57064;52.046;4.800;2022-09-27T15:17:51;4.07;;;0.80;;
69789;SDS011;57064;52.046;4.800;2022-09-27T15:20:21;4.90;;;1.08;;
69789;SDS011;57064;52.046;4.800;2022-09-27T15:22:52;3.75;;;0.90;;
69789;SDS011;57064;52.046;4.800;2022-09-27T15:25:23;5.13;;;0.88;;
69789;SDS011;57064;52.046;4.800;2022-09-27T15:27:56;8.90;;;3.40;;
69789;SDS011;57064;52.046;4.800;2022-09-27T15:30:27;6.28;;;1.08;;
69789;SDS011;57064;52.046;4.800;2022-09-27T15:32:59;5.15;;;1.23;;
69789;SDS011;57064;52.046;4.800;2022-09-27T15:35:30;7.47;;;1.60;;
69789;SDS011;57064;52.046;4.800;2022-09-27T15:38:11;3.00;;;1.85;;
69789;SDS011;57064;52.046;4.800;2022-09-27T15:43:19;8.18;;;2.03;;
69789;SDS011;57064;52.046;4.800;2022-09-27T15:45:54;6.68;;;1.95;;
69789;SDS011;57064;52.046;4.800;2022-09-27T15:48:21;7.80;;;2.47;;
69789;SDS011;57064;52.046;4.800;2022-09-27T15:50:48;9.35;;;3.00;;
69789;SDS011;57064;52.046;4.800;2022-09-27T15:53:57;5.45;;;1.92;;
69789;SDS011;57064;52.046;4.800;2022-09-27T15:56:05;6.63;;;1.85;;
69789;SDS011;57064;52.046;4.800;2022-09-27T15:58:31;4.32;;;1.90;;
69789;SDS011;57064;52.046;4.800;2022-09-27T16:01:01;8.70;;;1.90;;
69789;SDS011;57064;52.046;4.800;2022-09-27T16:03:32;5.47;;;1.90;;
69789;SDS011;57064;52.046;4.800;2022-09-27T16:06:00;4.97;;;2.28;;
69789;SDS011;57064;52.046;4.800;2022-09-27T16:08:27;4.72;;;1.75;;
69789;SDS011;57064;52.046;4.800;2022-09-27T16:10:57;5.72;;;3.45;;
69789;SDS011;57064;52.046;4.800;2022-09-27T16:13:24;8.27;;;4.20;;
69789;SDS011;57064;52.046;4.800;2022-09-27T16:15:51;6.47;;;4.90;;
69789;SDS011;57064;52.046;4.800;2022-09-27T16:18:17;7.80;;;3.70;;
69789;SDS011;57064;52.046;4.800;2022-09-27T16:20:43;7.93;;;2.63;;
69789;SDS011;57064;52.046;4.800;2022-09-27T16:23:09;11.25;;;3.13;;
69789;SDS011;57064;52.046;4.800;2022-09-27T16:25:35;7.50;;;3.53;;
69789;SDS011;57064;52.046;4.800;2022-09-27T16:28:02;9.00;;;2.85;;
69789;SDS011;57064;52.046;4.800;2022-09-27T16:30:29;10.23;;;4.57;;
69789;SDS011;57064;52.046;4.800;2022-09-27T16:32:56;6.10;;;3.28;;
69789;SDS011;57064;52.046;4.800;2022-09-27T16:35:23;8.25;;;3.13;;
69789;SDS011;57064;52.046;4.800;2022-09-27T16:37:50;6.72;;;2.92;;
69789;SDS011;57064;52.046;4.800;2022-09-27T16:40:16;3.50;;;1.77;;
69789;SDS011;57064;52.046;4.800;2022-09-27T16:42:43;7.78;;;2.25;;
69789;SDS011;57064;52.046;4.800;2022-09-27T16:45:11;8.50;;;2.63;;
69789;SDS011;57064;52.046;4.800;2022-09-27T16:47:40;8.00;;;2.78;;
69789;SDS011;57064;52.046;4.800;2022-09-27T16:50:06;21.58;;;6.88;;
69789;SDS011;57064;52.046;4.800;2022-09-27T16:52:52;17.88;;;7.53;;
69789;SDS011;57064;52.046;4.800;2022-09-27T16:55:19;10.32;;;5.05;;
69789;SDS011;57064;52.046;4.800;2022-09-27T16:57:47;6.93;;;3.97;;
69789;SDS011;57064;52.046;4.800;2022-09-27T17:00:15;13.15;;;5.00;;
69789;SDS011;57064;52.046;4.800;2022-09-27T17:02:41;8.18;;;4.53;;
69789;SDS011;57064;52.046;4.800;2022-09-27T17:05:11;7.72;;;5.05;;
69789;SDS011;57064;52.046;4.800;2022-09-27T17:07:38;9.73;;;3.45;;
69789;SDS011;57064;52.046;4.800;2022-09-27T17:10:04;10.48;;;4.50;;
69789;SDS011;57064;52.046;4.800;2022-09-27T17:12:32;10.13;;;3.30;;
69789;SDS011;57064;52.046;4.800;2022-09-27T17:14:59;9.27;;;3.42;;
69789;SDS011;57064;52.046;4.800;2022-09-27T17:17:25;5.90;;;3.00;;
69789;SDS011;57064;52.046;4.800;2022-09-27T17:19:51;5.95;;;2.38;;
69789;SDS011;57064;52.046;4.800;2022-09-27T17:22:18;8.05;;;2.65;;
69789;SDS011;57064;52.046;4.800;2022-09-27T17:24:44;4.38;;;2.75;;
69789;SDS011;57064;52.046;4.800;2022-09-27T17:27:10;6.82;;;2.90;;
69789;SDS011;57064;52.046;4.800;2022-09-27T17:29:36;7.40;;;3.30;;
69789;SDS011;57064;52.046;4.800;2022-09-27T17:32:03;5.35;;;2.60;;
69789;SDS011;57064;52.046;4.800;2022-09-27T17:34:32;6.30;;;2.58;;
69789;SDS011;57064;52.046;4.800;2022-09-27T17:36:59;6.25;;;2.58;;
69789;SDS011;57064;52.046;4.800;2022-09-27T17:39:25;4.65;;;3.00;;
69789;SDS011;57064;52.046;4.800;2022-09-27T17:41:51;6.55;;;3.30;;
69789;SDS011;57064;52.046;4.800;2022-09-27T17:44:18;6.03;;;3.78;;
69789;SDS011;57064;52.046;4.800;2022-09-27T17:46:44;8.05;;;3.90;;
69789;SDS011;57064;52.046;4.800;2022-09-27T17:49:11;7.70;;;4.38;;
69789;SDS011;57064;52.046;4.800;2022-09-27T17:51:56;8.82;;;4.75;;
69789;SDS011;57064;52.046;4.800;2022-09-27T17:54:22;9.68;;;5.18;;
69789;SDS011;57064;52.046;4.800;2022-09-27T17:56:51;8.38;;;4.22;;
69789;SDS011;57064;52.046;4.800;2022-09-27T17:59:19;7.70;;;4.47;;
69789;SDS011;57064;52.046;4.800;2022-09-27T18:01:45;11.75;;;4.95;;
69789;SDS011;57064;52.046;4.800;2022-09-27T18:04:12;10.55;;;4.22;;
69789;SDS011;57064;52.046;4.800;2022-09-27T18:06:41;9.20;;;4.10;;
69789;SDS011;57064;52.046;4.800;2022-09-27T18:09:10;6.13;;;3.88;;
69789;SDS011;57064;52.046;4.800;2022-09-27T18:11:38;8.73;;;4.35;;
69789;SDS011;57064;52.046;4.800;2022-09-27T18:14:04;12.32;;;5.50;;
69789;SDS011;57064;52.046;4.800;2022-09-27T18:16:32;13.10;;;6.28;;